createdAt,value
2018-04-09T00:00:36.557Z,45.60
2018-04-09T00:03:07.129Z,43.80
2018-04-09T00:05:36.778Z,46.00
2018-04-09T00:08:06.078Z,42.20
2018-04-09T00:10:36.506Z,44.30
2018-04-09T00:13:06.174Z,46.60
2018-04-09T00:15:36.111Z,42.00
2018-04-09T00:18:05.407Z,40.30
2018-04-09T00:20:35.104Z,41.50
2018-04-09T00:23:08.272Z,41.00
2018-04-09T00:25:37.626Z,40.70
2018-04-09T00:28:07.325Z,39.00
2018-04-09T00:30:36.784Z,40.50
2018-04-09T00:33:06.431Z,43.20
2018-04-09T00:35:36.184Z,39.80
2018-04-09T00:38:06.129Z,40.20
2018-04-09T00:40:35.895Z,40.70
2018-04-09T00:43:04.696Z,40.70
2018-04-09T00:45:34.719Z,39.60
2018-04-09T00:48:04.082Z,40.90
2018-04-09T00:50:33.608Z,40.70
2018-04-09T00:53:02.864Z,42.90
2018-04-09T00:55:32.188Z,41.00
2018-04-09T00:58:01.692Z,40.50
2018-04-09T01:00:30.557Z,41.40
2018-04-09T01:02:59.570Z,39.30
2018-04-09T01:05:31.509Z,45.00
2018-04-09T01:08:01.808Z,41.00
2018-04-09T01:10:34.404Z,41.30
2018-04-09T01:13:04.443Z,41.40
2018-04-09T01:15:38.873Z,42.50
2018-04-09T01:18:08.594Z,42.30
2018-04-09T01:20:40.827Z,41.40
2018-04-09T01:23:10.524Z,42.70
2018-04-09T01:25:39.802Z,44.20
2018-04-09T01:28:09.521Z,43.10
2018-04-09T01:30:46.552Z,43.10
2018-04-09T01:33:15.994Z,43.10
2018-04-09T01:35:45.147Z,44.30
2018-04-09T01:38:14.713Z,44.90
2018-04-09T01:40:44.289Z,45.20
2018-04-09T01:43:13.619Z,45.00
2018-04-09T01:45:42.503Z,45.80
2018-04-09T01:48:13.240Z,45.30
2018-04-09T01:50:42.559Z,45.20
2018-04-09T01:53:11.590Z,46.60
2018-04-09T01:55:41.137Z,46.40
2018-04-09T01:58:14.037Z,46.40
2018-04-09T02:00:44.291Z,47.70
2018-04-09T02:11:05.142Z,48.90
2018-04-09T02:13:34.484Z,49.70
2018-04-09T02:16:04.142Z,49.20
2018-04-09T02:18:33.963Z,49.00
2018-04-09T02:21:04.880Z,48.30
2018-04-09T02:23:34.997Z,49.30
2018-04-09T02:26:04.671Z,51.70
2018-04-09T02:28:34.606Z,48.00
2018-04-09T02:31:04.127Z,49.40
2018-04-09T02:33:33.219Z,52.10
2018-04-09T02:36:02.912Z,52.10
2018-04-09T02:38:32.612Z,51.40
2018-04-09T02:41:01.729Z,52.60
2018-04-09T02:43:31.614Z,53.10
2018-04-09T02:46:00.866Z,52.10
2018-04-09T02:48:30.754Z,55.20
2018-04-09T02:51:00.550Z,53.70
2018-04-09T02:53:30.037Z,53.30
2018-04-09T02:55:59.126Z,54.30
2018-04-09T02:58:28.548Z,54.50
2018-04-09T03:00:57.998Z,54.50
2018-04-09T03:03:27.665Z,55.00
2018-04-09T03:05:56.840Z,56.50
2018-04-09T03:08:27.542Z,56.60
2018-04-09T03:10:57.024Z,56.30
2018-04-09T03:13:26.347Z,56.70
2018-04-09T03:15:56.814Z,56.90
2018-04-09T03:18:25.926Z,57.70
2018-04-09T03:20:55.875Z,58.20
2018-04-09T03:23:28.508Z,58.60
2018-04-09T03:25:58.368Z,59.00
2018-04-09T03:28:31.111Z,59.00
2018-04-09T03:31:00.680Z,59.20
2018-04-09T03:33:31.008Z,60.00
2018-04-09T03:36:01.719Z,60.20
2018-04-09T03:38:33.423Z,60.40
2018-04-09T03:41:04.786Z,60.20
2018-04-09T03:43:34.349Z,59.70
2018-04-09T03:46:04.554Z,62.30
2018-04-09T03:48:34.380Z,62.30
2018-04-09T03:51:04.466Z,62.80
2018-04-09T03:53:33.529Z,63.30
2018-04-09T03:56:02.932Z,64.00
2018-04-09T03:58:33.117Z,62.80
2018-04-09T04:01:02.743Z,63.30
2018-04-09T04:03:32.994Z,64.10
2018-04-09T04:06:03.133Z,64.70
2018-04-09T04:08:32.551Z,64.30
2018-04-09T04:11:01.951Z,64.20
2018-04-09T04:13:31.345Z,64.60
2018-04-09T04:16:11.748Z,65.80
2018-04-09T04:18:52.500Z,67.80
2018-04-09T04:21:33.059Z,66.80
2018-04-09T04:24:02.724Z,67.00
2018-04-09T04:26:32.488Z,67.80
2018-04-09T04:29:03.117Z,68.50
2018-04-09T04:31:32.857Z,68.10
2018-04-09T04:34:03.745Z,67.00
2018-04-09T04:36:35.782Z,67.30
2018-04-09T04:39:07.468Z,67.70
2018-04-09T04:41:37.509Z,67.00
2018-04-09T04:44:07.625Z,67.00
2018-04-09T04:46:37.134Z,66.80
2018-04-09T04:49:06.987Z,69.00
2018-04-09T04:51:36.285Z,67.80
2018-04-09T04:54:05.650Z,68.10
2018-04-09T04:56:35.154Z,68.90
2018-04-09T04:59:04.623Z,66.80
2018-04-09T05:01:34.153Z,67.90
2018-04-09T05:04:03.710Z,67.00
2018-04-09T05:06:33.130Z,67.80
2018-04-09T05:09:02.648Z,67.30
2018-04-09T05:11:32.178Z,68.00
2018-04-09T05:14:01.311Z,68.20
2018-04-09T05:16:30.753Z,68.60
2018-04-09T05:19:00.482Z,67.10
2018-04-09T05:21:30.237Z,67.50
2018-04-09T05:23:59.704Z,69.20
2018-04-09T05:26:29.182Z,70.80
2018-04-09T05:28:58.717Z,70.50
2018-04-09T05:31:28.093Z,71.40
2018-04-09T05:33:57.358Z,71.60
2018-04-09T05:36:26.903Z,71.90
2018-04-09T05:38:56.494Z,72.10
2018-04-09T05:41:25.934Z,68.40
2018-04-09T05:43:55.178Z,68.60
2018-04-09T05:46:24.899Z,69.80
2018-04-09T05:48:55.239Z,68.10
2018-04-09T05:51:24.956Z,67.80
2018-04-09T05:53:54.625Z,66.70
2018-04-09T05:56:24.084Z,66.90
2018-04-09T05:58:55.176Z,67.50
2018-04-09T06:01:24.911Z,67.70
2018-04-09T06:03:54.483Z,67.20
2018-04-09T06:06:24.201Z,69.00
2018-04-09T06:08:53.559Z,71.40
2018-04-09T06:11:23.058Z,70.80
2018-04-09T06:13:52.745Z,71.00
2018-04-09T06:16:22.265Z,70.90
2018-04-09T06:18:51.767Z,68.20
2018-04-09T06:21:20.911Z,69.20
2018-04-09T06:23:51.399Z,67.20
2018-04-09T06:26:20.721Z,67.40
2018-04-09T06:28:50.432Z,70.80
2018-04-09T06:31:20.771Z,71.00
2018-04-09T06:33:50.871Z,70.70
2018-04-09T06:36:20.114Z,70.60
2018-04-09T06:38:49.194Z,70.50
2018-04-09T06:41:18.465Z,71.20
2018-04-09T06:43:48.130Z,69.60
2018-04-09T06:46:17.522Z,69.10
2018-04-09T06:48:46.607Z,69.00
2018-04-09T06:51:15.899Z,70.20
2018-04-09T06:53:45.508Z,72.00
2018-04-09T06:56:15.301Z,71.00
2018-04-09T06:58:44.905Z,68.60
2018-04-09T07:01:15.043Z,71.10
2018-04-09T07:03:44.966Z,71.60
2018-04-09T07:06:14.506Z,71.80
2018-04-09T07:08:44.765Z,71.80
2018-04-09T07:11:15.017Z,71.70
2018-04-09T07:13:44.939Z,71.80
2018-04-09T07:16:14.654Z,71.90
2018-04-09T07:18:44.494Z,72.70
2018-04-09T07:21:13.442Z,72.70
2018-04-09T07:23:43.133Z,72.60
2018-04-09T07:26:13.275Z,73.60
2018-04-09T07:28:42.771Z,73.10
2018-04-09T07:31:12.580Z,73.70
2018-04-09T07:33:42.576Z,73.70
2018-04-09T07:36:14.585Z,75.20
2018-04-09T07:38:44.171Z,75.50
2018-04-09T07:41:13.451Z,74.80
2018-04-09T07:43:42.859Z,74.90
2018-04-09T07:46:12.234Z,75.10
2018-04-09T07:48:41.679Z,75.30
2018-04-09T07:51:10.980Z,75.80
2018-04-09T07:53:40.265Z,75.20
2018-04-09T07:56:09.568Z,74.50
2018-04-09T07:58:38.716Z,75.50
2018-04-09T08:01:08.363Z,75.90
2018-04-09T08:03:37.658Z,76.60
2018-04-09T08:06:06.929Z,77.30
2018-04-09T08:08:36.246Z,78.00
2018-04-09T08:11:06.376Z,76.40
2018-04-09T08:13:35.651Z,76.80
2018-04-09T08:16:06.233Z,75.90
2018-04-09T08:18:36.404Z,75.80
2018-04-09T08:21:06.401Z,76.00
2018-04-09T08:23:35.881Z,76.20
2018-04-09T08:26:05.466Z,75.80
2018-04-09T08:28:35.058Z,76.50
2018-04-09T08:31:04.641Z,76.40
2018-04-09T08:33:34.781Z,76.80
2018-04-09T08:36:03.936Z,77.30
2018-04-09T08:38:33.016Z,77.50
2018-04-09T08:41:02.694Z,78.40
2018-04-09T08:43:32.140Z,78.10
2018-04-09T08:46:01.529Z,78.30
2018-04-09T08:48:30.977Z,77.90
2018-04-09T08:51:00.496Z,77.90
2018-04-09T08:53:29.770Z,78.00
2018-04-09T08:55:59.310Z,78.10
2018-04-09T08:58:28.810Z,80.00
2018-04-09T09:00:57.925Z,80.60
2018-04-09T09:03:26.987Z,81.00
2018-04-09T09:05:56.027Z,80.00
2018-04-09T09:08:25.604Z,79.70
2018-04-09T09:10:55.402Z,79.50
2018-04-09T09:13:25.214Z,78.50
2018-04-09T09:15:54.469Z,78.60
2018-04-09T09:18:23.758Z,78.90
2018-04-09T09:20:53.591Z,79.50
2018-04-09T09:23:24.324Z,79.70
2018-04-09T09:25:54.020Z,80.50
2018-04-09T09:28:23.178Z,79.60
2018-04-09T09:30:52.251Z,79.60
2018-04-09T09:33:21.376Z,81.20
2018-04-09T09:35:50.414Z,82.50
2018-04-09T09:38:19.489Z,84.60
2018-04-09T09:40:48.811Z,85.90
2018-04-09T09:43:18.282Z,87.00
2018-04-09T09:45:48.126Z,86.70
2018-04-09T09:48:17.398Z,86.90
2018-04-09T09:50:46.526Z,86.30
2018-04-09T09:53:15.991Z,85.20
2018-04-09T09:55:45.438Z,85.30
2018-04-09T09:58:14.813Z,85.90
2018-04-09T10:00:48.327Z,86.00
2018-04-09T10:03:23.258Z,86.20
2018-04-09T10:05:52.663Z,85.20
2018-04-09T10:08:22.761Z,85.60
2018-04-09T10:10:52.049Z,85.30
2018-04-09T10:13:21.520Z,85.20
2018-04-09T10:15:51.453Z,87.60
2018-04-09T10:18:20.588Z,87.60
2018-04-09T10:20:49.656Z,87.60
2018-04-09T10:23:18.981Z,88.10
2018-04-09T10:25:48.692Z,88.80
2018-04-09T10:28:18.012Z,89.00
2018-04-09T10:30:47.644Z,89.20
2018-04-09T10:33:17.999Z,89.30
2018-04-09T10:35:47.899Z,89.20
2018-04-09T10:38:17.247Z,89.00
2018-04-09T10:40:46.971Z,89.40
2018-04-09T10:43:15.997Z,89.50
2018-04-09T10:45:45.513Z,89.00
2018-04-09T10:48:14.843Z,89.40
2018-04-09T10:50:44.308Z,89.70
2018-04-09T10:53:13.811Z,90.10
2018-04-09T10:55:43.033Z,90.40
2018-04-09T10:58:12.514Z,90.30
2018-04-09T11:00:41.820Z,90.40
2018-04-09T11:03:11.375Z,90.60
2018-04-09T11:05:40.703Z,90.70
2018-04-09T11:08:09.720Z,90.90
2018-04-09T11:10:39.074Z,90.90
2018-04-09T11:13:08.567Z,91.30
2018-04-09T11:15:37.823Z,91.40
2018-04-09T11:18:07.094Z,91.60
2018-04-09T11:20:36.906Z,91.70
2018-04-09T11:23:06.328Z,91.70
2018-04-09T11:25:35.844Z,92.00
2018-04-09T11:28:05.523Z,91.90
2018-04-09T11:30:35.439Z,91.90
2018-04-09T11:33:04.957Z,92.00
2018-04-09T11:35:34.330Z,92.00
2018-04-09T11:38:03.632Z,92.20
2018-04-09T11:40:33.837Z,92.50
2018-04-09T11:43:03.301Z,92.40
2018-04-09T11:45:32.860Z,92.40
2018-04-09T11:48:02.150Z,92.40
2018-04-09T11:50:32.090Z,92.40
2018-04-09T11:53:01.949Z,92.10
2018-04-09T11:55:31.456Z,92.20
2018-04-09T11:58:00.771Z,92.10
2018-04-09T12:00:30.849Z,92.20
2018-04-09T12:03:00.150Z,92.20
2018-04-09T12:05:29.385Z,92.00
2018-04-09T12:07:59.398Z,92.50
2018-04-09T12:10:29.297Z,92.20
2018-04-09T12:12:58.671Z,92.20
2018-04-09T12:15:27.707Z,92.10
2018-04-09T12:17:57.795Z,92.00
2018-04-09T12:20:27.083Z,91.90
2018-04-09T12:22:56.154Z,92.00
2018-04-09T12:25:25.439Z,92.10
2018-04-09T12:27:55.603Z,92.20
2018-04-09T12:30:25.157Z,92.20
2018-04-09T12:32:54.410Z,92.30
2018-04-09T12:35:24.016Z,92.30
2018-04-09T12:37:53.307Z,92.50
2018-04-09T12:40:22.968Z,92.60
2018-04-09T12:42:52.677Z,92.50
2018-04-09T12:45:22.283Z,92.70
2018-04-09T12:47:51.896Z,92.70
2018-04-09T12:50:20.987Z,92.70
2018-04-09T12:52:50.135Z,92.80
2018-04-09T12:55:19.765Z,92.70
2018-04-09T12:57:49.102Z,92.80
2018-04-09T13:00:18.553Z,92.70
2018-04-09T13:02:48.117Z,92.90
2018-04-09T13:05:17.401Z,92.70
2018-04-09T13:07:47.385Z,92.70
2018-04-09T13:10:17.720Z,92.80
2018-04-09T13:12:47.528Z,92.80
2018-04-09T13:15:16.824Z,92.70
2018-04-09T13:17:45.992Z,92.60
2018-04-09T13:20:15.028Z,92.50
2018-04-09T13:22:44.377Z,92.50
2018-04-09T13:25:13.615Z,92.60
2018-04-09T13:27:43.680Z,92.40
2018-04-09T13:30:13.171Z,92.30
2018-04-09T13:32:42.410Z,92.50
2018-04-09T13:35:11.748Z,92.60
2018-04-09T13:37:42.090Z,92.70
2018-04-09T13:40:11.216Z,92.70
2018-04-09T13:42:40.859Z,92.90
2018-04-09T13:45:11.616Z,92.80
2018-04-09T13:47:42.054Z,92.90
2018-04-09T13:50:12.380Z,93.10
2018-04-09T13:52:41.637Z,93.00
2018-04-09T13:55:11.554Z,93.00
2018-04-09T13:57:41.194Z,92.90
2018-04-09T14:00:10.594Z,93.00
2018-04-09T14:02:40.097Z,92.90
2018-04-09T14:05:09.549Z,93.00
2018-04-09T14:07:39.063Z,93.10
2018-04-09T14:10:08.407Z,93.20
2018-04-09T14:12:37.910Z,93.30
2018-04-09T14:15:07.905Z,93.20
2018-04-09T14:17:38.580Z,93.30
2018-04-09T14:20:09.219Z,93.40
2018-04-09T14:22:39.498Z,93.40
2018-04-09T14:25:08.885Z,93.50
2018-04-09T14:27:38.700Z,93.70
2018-04-09T14:30:07.998Z,93.80
2018-04-09T14:32:37.301Z,94.00
2018-04-09T14:35:07.652Z,94.00
2018-04-09T14:37:36.781Z,94.10
2018-04-09T14:40:06.381Z,94.10
2018-04-09T14:42:35.622Z,94.20
2018-04-09T14:45:04.765Z,94.20
2018-04-09T14:47:34.771Z,94.20
2018-04-09T14:50:04.080Z,94.20
2018-04-09T14:52:33.162Z,94.30
2018-04-09T14:55:02.751Z,94.20
2018-04-09T14:57:32.100Z,94.20
2018-04-09T15:00:01.472Z,94.20
2018-04-09T15:02:31.321Z,94.20
2018-04-09T15:05:01.693Z,92.80
2018-04-09T15:07:30.986Z,92.70
2018-04-09T15:10:00.272Z,93.20
2018-04-09T15:12:29.970Z,93.10
2018-04-09T15:14:59.333Z,93.50
2018-04-09T15:17:28.978Z,93.60
2018-04-09T15:19:59.289Z,93.50
2018-04-09T15:22:29.483Z,93.20
2018-04-09T15:24:59.014Z,93.00
2018-04-09T15:27:28.562Z,92.90
2018-04-09T15:29:58.015Z,90.80
2018-04-09T15:32:27.360Z,91.70
2018-04-09T15:34:56.539Z,91.40
2018-04-09T15:37:26.041Z,91.40
2018-04-09T15:39:55.734Z,90.90
2018-04-09T15:42:24.845Z,90.60
2018-04-09T15:44:54.405Z,89.10
2018-04-09T15:47:24.245Z,90.10
2018-04-09T15:49:53.555Z,88.30
2018-04-09T15:52:22.925Z,87.70
2018-04-09T15:54:52.337Z,88.00
2018-04-09T15:57:21.869Z,82.60
2018-04-09T15:59:51.020Z,82.20
2018-04-09T16:02:20.478Z,77.80
2018-04-09T16:04:49.548Z,77.00
2018-04-09T16:07:19.193Z,74.20
2018-04-09T16:09:48.606Z,73.40
2018-04-09T16:12:18.899Z,72.40
2018-04-09T16:14:48.420Z,69.10
2018-04-09T16:17:17.897Z,68.30
2018-04-09T16:19:47.115Z,64.30
2018-04-09T16:22:16.737Z,64.10
2018-04-09T16:24:46.122Z,65.50
2018-04-09T16:27:15.615Z,67.90
2018-04-09T16:29:45.089Z,60.90
2018-04-09T16:32:14.641Z,60.20
2018-04-09T16:34:43.557Z,55.00
2018-04-09T16:37:13.836Z,52.60
2018-04-09T16:39:43.608Z,58.00
2018-04-09T16:42:13.706Z,48.20
2018-04-09T16:44:42.971Z,47.90
2018-04-09T16:47:12.708Z,51.10
2018-04-09T16:49:42.695Z,41.50
2018-04-09T16:52:12.302Z,38.80
2018-04-09T16:54:43.289Z,34.80
2018-04-09T16:57:12.539Z,34.40
2018-04-09T16:59:42.317Z,32.90
2018-04-09T17:02:11.940Z,34.20
2018-04-09T17:04:41.494Z,29.50
2018-04-09T17:07:11.132Z,27.90
2018-04-09T17:09:40.463Z,28.20
2018-04-09T17:12:09.925Z,26.30
2018-04-09T17:14:39.153Z,26.50
2018-04-09T17:17:08.645Z,26.80
2018-04-09T17:19:38.162Z,31.20
2018-04-09T17:22:07.686Z,23.40
2018-04-09T17:24:37.389Z,24.40
2018-04-09T17:27:07.045Z,24.00
2018-04-09T17:29:36.850Z,26.20
2018-04-09T17:32:06.956Z,23.20
2018-04-09T17:34:36.710Z,24.10
2018-04-09T17:37:06.910Z,18.50
2018-04-09T17:39:36.340Z,18.50
2018-04-09T17:42:06.773Z,21.40
2018-04-09T17:44:36.597Z,20.60
2018-04-09T17:47:06.778Z,18.10
2018-04-09T17:49:36.535Z,18.00
2018-04-09T17:52:06.200Z,20.50
2018-04-09T17:54:35.654Z,20.40
2018-04-09T17:57:06.121Z,24.10
2018-04-09T17:59:36.278Z,22.70
2018-04-09T18:02:06.162Z,22.60
2018-04-09T18:04:36.265Z,22.70
2018-04-09T18:07:05.857Z,22.30
2018-04-09T18:09:35.257Z,20.30
2018-04-09T18:12:04.801Z,20.00
2018-04-09T18:14:35.280Z,24.80
2018-04-09T18:17:05.800Z,24.80
2018-04-09T18:19:35.164Z,25.50
2018-04-09T18:22:04.493Z,26.70
2018-04-09T18:24:34.155Z,22.90
2018-04-09T18:27:04.190Z,19.60
2018-04-09T18:29:34.884Z,20.90
2018-04-09T18:32:04.547Z,20.90
2018-04-09T18:34:34.471Z,22.20
2018-04-09T18:37:04.193Z,22.50
2018-04-09T18:39:33.780Z,17.00
2018-04-09T18:42:03.503Z,19.40
2018-04-09T18:44:33.367Z,28.90
2018-04-09T18:47:02.932Z,24.30
2018-04-09T18:49:32.637Z,25.70
2018-04-09T18:52:02.668Z,21.90
2018-04-09T18:54:32.256Z,20.60
2018-04-09T18:57:01.925Z,19.90
2018-04-09T18:59:31.764Z,18.20
2018-04-09T19:02:01.102Z,18.10
2018-04-09T19:04:31.746Z,16.10
2018-04-09T19:07:01.424Z,16.00
2018-04-09T19:09:30.682Z,15.80
2018-04-09T19:11:59.932Z,17.30
2018-04-09T19:14:30.231Z,19.80
2018-04-09T19:17:00.199Z,22.70
2018-04-09T19:19:30.045Z,21.40
2018-04-09T19:21:59.836Z,19.00
2018-04-09T19:24:29.541Z,18.90
2018-04-09T19:26:59.173Z,21.50
2018-04-09T19:29:28.737Z,22.30
2018-04-09T19:31:59.180Z,26.20
2018-04-09T19:34:29.544Z,19.70
2018-04-09T19:37:04.600Z,19.60
2018-04-09T19:39:35.543Z,17.80
2018-04-09T19:42:05.200Z,17.90
2018-04-09T19:44:35.011Z,17.60
2018-04-09T19:47:05.625Z,20.20
2018-04-09T19:49:34.903Z,19.20
2018-04-09T19:52:04.865Z,24.90
2018-04-09T19:54:34.331Z,25.00
2018-04-09T19:57:03.621Z,17.30
2018-04-09T19:59:33.842Z,18.50
2018-04-09T20:02:04.688Z,18.90
2018-04-09T20:04:34.202Z,18.90
2018-04-09T20:07:04.095Z,21.10
2018-04-09T20:09:33.682Z,18.40
2018-04-09T20:12:03.109Z,22.30
2018-04-09T20:14:33.351Z,21.40
2018-04-09T20:17:03.070Z,21.40
2018-04-09T20:19:33.094Z,19.90
2018-04-09T20:22:02.480Z,25.10
2018-04-09T20:24:32.362Z,22.40
2018-04-09T20:27:02.217Z,25.20
2018-04-09T20:29:31.613Z,22.90
2018-04-09T20:32:00.871Z,23.40
2018-04-09T20:34:30.378Z,24.70
2018-04-09T20:37:01.354Z,22.90
2018-04-09T20:39:30.807Z,22.90
2018-04-09T20:42:00.325Z,22.50
2018-04-09T20:44:29.865Z,24.00
2018-04-09T20:46:59.108Z,24.80
2018-04-09T20:49:28.957Z,23.30
2018-04-09T20:51:58.202Z,23.40
2018-04-09T20:54:28.987Z,24.40
2018-04-09T20:56:59.108Z,26.00
2018-04-09T20:59:28.203Z,25.90
2018-04-09T21:01:57.686Z,22.40
2018-04-09T21:04:27.471Z,25.90
2018-04-09T21:06:57.023Z,23.40
2018-04-09T21:09:26.437Z,24.40
2018-04-09T21:11:55.770Z,21.50
2018-04-09T21:14:25.499Z,23.60
2018-04-09T21:16:54.813Z,25.30
2018-04-09T21:19:24.331Z,24.10
2018-04-09T21:21:53.687Z,23.20
2018-04-09T21:24:23.082Z,27.10
2018-04-09T21:26:52.252Z,24.30
2018-04-09T21:29:22.356Z,24.80
2018-04-09T21:31:52.450Z,24.30
2018-04-09T21:34:22.175Z,26.60
2018-04-09T21:36:51.653Z,23.40
2018-04-09T21:39:22.423Z,22.90
2018-04-09T21:41:51.953Z,22.80
2018-04-09T21:44:22.054Z,25.30
2018-04-09T21:46:51.552Z,25.80
2018-04-09T21:49:22.037Z,23.70
2018-04-09T21:51:51.983Z,23.10
2018-04-09T21:54:22.804Z,24.60
2018-04-09T21:56:52.524Z,24.50
2018-04-09T21:59:22.010Z,24.70
2018-04-09T22:01:51.490Z,22.00
2018-04-09T22:04:21.006Z,21.30
2018-04-09T22:06:50.332Z,25.10
2018-04-09T22:09:20.363Z,21.10
2018-04-09T22:11:49.881Z,21.00
2018-04-09T22:14:19.323Z,22.10
2018-04-09T22:16:48.640Z,22.20
2018-04-09T22:19:19.188Z,22.20
2018-04-09T22:21:48.881Z,22.30
2018-04-09T22:24:18.203Z,21.30
2018-04-09T22:26:47.500Z,24.60
2018-04-09T22:29:17.040Z,22.10
2018-04-09T22:31:46.304Z,19.50
2018-04-09T22:34:15.588Z,19.80
2018-04-09T22:36:46.131Z,21.30
2018-04-09T22:39:15.840Z,21.30
2018-04-09T22:41:45.443Z,22.50
2018-04-09T22:44:14.997Z,22.40
2018-04-09T22:46:44.604Z,22.20
2018-04-09T22:49:14.197Z,19.90
2018-04-09T22:51:43.656Z,22.60
2018-04-09T22:54:13.506Z,23.40
2018-04-09T22:56:43.241Z,21.60
2018-04-09T22:59:13.774Z,22.60
2018-04-09T23:04:17.579Z,23.20
2018-04-09T23:06:47.499Z,22.20
2018-04-09T23:09:18.405Z,22.50
2018-04-09T23:11:48.586Z,21.20
2018-04-09T23:14:18.173Z,21.40
2018-04-09T23:16:47.776Z,22.10
2018-04-09T23:19:17.404Z,22.20
2018-04-09T23:21:46.912Z,20.50
2018-04-09T23:24:16.463Z,22.70
2018-04-09T23:26:45.782Z,20.90
2018-04-09T23:29:15.559Z,23.80
2018-04-09T23:31:45.445Z,22.10
2018-04-09T23:34:14.746Z,22.90
2018-04-09T23:36:44.058Z,22.00
2018-04-09T23:39:14.090Z,23.60
2018-04-09T23:42:00.372Z,23.60
2018-04-09T23:44:29.745Z,21.30
2018-04-09T23:46:59.383Z,22.50
2018-04-09T23:49:29.272Z,22.40
2018-04-09T23:51:59.848Z,24.40
2018-04-09T23:54:28.799Z,24.20
2018-04-09T23:56:59.133Z,23.10
2018-04-09T23:59:29.341Z,22.60
